Mussey Grade (971, 6917, MOR1) Station Data

Red Flag Warning: No
Fire Weather Zone: 250
SDGE Region: Ramona
Lat/Lon: 32.986/-116.908

Observations

Time Wind Speed/Gust Temp(F) RH Fuel Moist Fuel Temp(F) Dewpt(F) Tmax(F) Tmin(F) Accum Precip 10-min Precip SL Press(mb)
3/29 8:00am 47 4 G 7 62° 25% - - 26° 62.8° 52.9° - - -
3/29 7:50am 41 4 G 6 62° 25% - - 25° 62.2° 52.9° - - -
3/29 7:40am 47 3 G 4 60° 23% - - 23° 61.6° 52.9° - - -
3/29 7:30am 50 3 G 5 57° 28% - - 24° 61.3° 52.9° - - -
3/29 7:20am 33 1 G 4 59° 24% - - 22° 61.3° 52.9° - - -
3/29 7:10am 41 4 G 6 60° 21% - - 20° 61.3° 52.9° - - -
3/29 7:00am 43 5 G 7 59° 22% - - 20° 61.3° 52.9° - - -
3/29 6:50am 61 4 G 7 57° 25% - - 22° 61.3° 52.9° - - -
3/29 6:40am 53 3 G 4 55° 28% - - 23° 61.3° 52.9° - - -
3/29 6:30am 31 2 G 3 54° 30% - - 24° 61.3° 52.9° - - -
3/29 6:20am 50 2 G 4 54° 31% - - 24° 61.3° 52.9° - - -
3/29 6:10am 55 2 G 4 53° 32% - - 24° 61.3° 52.9° - - -
3/29 6:00am 56 2 G 4 54° 30% - - 24° 61.3° 53.2° - - -
3/29 5:50am 55 3 G 4 54° 32% - - 24° 61.3° 53.2° - - -
3/29 5:40am 44 1 G 3 55° 30% - - 24° 61.3° 54° - - -
3/29 5:30am 63 4 G 6 57° 26% - - 23° 61.3° 54.7° - - -
3/29 5:20am 54 5 G 7 58° 24% - - 22° 61.3° 54.7° - - -
3/29 5:10am 54 4 G 6 59° 23% - - 21° 61.3° 54.7° - - -
3/29 5:00am 54 3 G 4 58° 26% - - 23° 61.3° 54.7° - - -
3/29 4:50am 57 3 G 5 59° 24% - - 22° 61.3° 54.7° - - -
3/29 4:40am 57 5 G 8 58° 25% - - 23° 61.3° 54.7° - - -
3/29 4:30am 60 5 G 10 60° 24% - - 23° 61.3° 54.7° - - -
3/29 4:20am 49 5 G 7 60° 23% - - 22° 61.3° 54.7° - - -
3/29 4:10am 60 5 G 7 58° 27% - - 24° 61.3° 54.7° - - -
3/29 4:00am 69 5 G 7 58° 27% - - 24° 61.3° 54.7° - - -
3/29 3:50am 60 4 G 6 59° 24% - - 23° 61.3° 54.7° - - -
3/29 3:40am 62 2 G 5 58° 28% - - 24° 61.3° 54.7° - - -
3/29 3:30am 37 2 G 5 58° 27% - - 25° 61.3° 54.7° - - -
3/29 3:20am 62 5 G 7 60° 26% - - 24° 61.3° 54.7° - - -
3/29 3:10am 47 5 G 8 60° 24% - - 24° 61.3° 54.7° - - -
3/29 3:00am 45 5 G 8 60° 26% - - 25° 60.6° 54.7° - - -
3/29 2:50am 47 4 G 7 59° 28% - - 26° 60.6° 54.7° - - -
3/29 2:40am 50 5 G 8 59° 28% - - 26° 60.6° 54.7° - - -
3/29 2:30am 38 4 G 7 60° 28% - - 27° 60.6° 54.7° - - -
3/29 2:20am 37 4 G 8 60° 28% - - 27° 60.6° 54.7° - - -
3/29 2:10am 41 6 G 8 59° 31% - - 29° 59.6° 54.7° - - -
3/29 2:00am 48 5 G 8 58° 33% - - 30° 58.7° 54.7° - - -
3/29 1:50am 49 5 G 8 58° 35% - - 30° 58.6° 54.7° - - -
3/29 1:40am 49 3 G 7 57° 37% - - 31° 58.3° 54.7° - - -
3/29 1:30am 59 4 G 5 57° 41% - - 34° 58.1° 54.7° - - -
3/29 1:20am 54 3 G 5 57° 41% - - 34° 58.1° 54.7° - - -
3/29 1:10am 52 3 G 5 57° 42% - - 35° 58.1° 54.7° - - -
3/29 1:00am 43 2 G 5 57° 46% - - 36° 57.6° 54.7° - - -
3/29 12:50am 61 3 G 5 57° 53% - - 39° 57.1° 54.7° - - -
3/29 12:40am 61 3 G 6 56° 57% - - 41° 57.1° 54.7° - - -
3/29 12:30am 59 3 G 6 56° 56% - - 41° 57.1° 54.7° - - -
3/29 12:20am 59 2 G 5 56° 57% - - 41° 57.1° 54.7° - - -
3/29 12:10am 54 4 G 7 56° 58% - - 41° 56.2° 54.7° - - -
3/29 12:00am 64 3 G 4 55° 59% - - 40° 71.5° 45.7° - - -
3/28 11:50pm 61 2 G 3 56° 55% - - 40° 71.5° 45.7° - - -
3/28 11:40pm 67 4 G 6 55° 57% - - 40° 71.5° 45.7° - - -
3/28 11:30pm 60 3 G 5 55° 58% - - 40° 71.5° 45.7° - - -
3/28 11:20pm 53 1 G 3 55° 57% - - 40° 71.5° 45.7° - - -
3/28 11:10pm 68 2 G 4 55° 54% - - 39° 71.5° 45.7° - - -
3/28 11:00pm 58 1 G 3 56° 51% - - 38° 71.5° 45.7° - - -
3/28 10:50pm 46 3 G 4 56° 51% - - 38° 71.5° 45.7° - - -
3/28 10:40pm 54 2 G 4 55° 51% - - 37° 71.5° 45.7° - - -
3/28 10:30pm 59 3 G 4 54° 51% - - 37° 71.5° 45.7° - - -
3/28 10:20pm 51 2 G 2 54° 50% - - 36° 71.5° 45.7° - - -
3/28 10:10pm 47 1 G 2 56° 47% - - 36° 71.5° 45.7° - - -
3/28 10:00pm 52 1 G 2 55° 48% - - 36° 71.5° 45.7° - - -
3/28 9:50pm 65 2 G 3 55° 52% - - 38° 71.5° 45.7° - - -
3/28 9:40pm 69 3 G 5 56° 49% - - 37° 71.5° 45.7° - - -
3/28 9:30pm 50 2 G 4 56° 47% - - 36° 71.5° 45.7° - - -
3/28 9:20pm 54 2 G 3 56° 46% - - 35° 71.5° 45.7° - - -
3/28 9:10pm 62 2 G 3 56° 46% - - 36° 71.5° 45.7° - - -
3/28 9:00pm 64 2 G 3 57° 46% - - 37° 71.5° 45.7° - - -
3/28 8:50pm 50 3 G 3 57° 49% - - 38° 71.5° 45.7° - - -
3/28 8:40pm 55 1 G 2 56° 54% - - 39° 71.5° 45.7° - - -
3/28 8:30pm 51 2 G 3 56° 54% - - 40° 71.5° 45.7° - - -
3/28 8:20pm 61 2 G 3 57° 52% - - 40° 71.5° 45.7° - - -
3/28 8:10pm 65 2 G 3 58° 50% - - 39° 71.5° 45.7° - - -
3/28 8:00pm 35 1 G 3 58° 49% - - 40° 71.5° 45.7° - - -
3/28 7:50pm 42 1 G 3 58° 49% - - 39° 71.5° 45.7° - - -
3/28 7:40pm 70 1 G 2 59° 45% - - 38° 71.5° 45.7° - - -
3/28 7:30pm 101 1 G 4 60° 41% - - 37° 71.5° 45.7° - - -
3/28 7:20pm 44 2 G 4 61° 42% - - 37° 71.5° 45.7° - - -
3/28 7:10pm 104 2 G 2 61° 40% - - 37° 71.5° 45.7° - - -
3/28 7:00pm 334 1 G 4 62° 39% - - 37° 71.5° 45.7° - - -
3/28 6:50pm 341 1 G 5 63° 40% - - 38° 71.5° 45.7° - - -
3/28 6:40pm 2 3 G 6 64° 40% - - 39° 71.5° 45.7° - - -
3/28 6:30pm 331 2 G 5 65° 40% - - 40° 71.5° 45.7° - - -
3/28 6:20pm 333 2 G 5 65° 39% - - 40° 71.5° 45.7° - - -
3/28 6:10pm 323 2 G 6 66° 38% - - 40° 71.5° 45.7° - - -
3/28 6:00pm 274 2 G 6 67° 37% - - 39° 71.5° 45.7° - - -
3/28 5:50pm 246 4 G 8 67° 36% - - 39° 71.5° 45.7° - - -
3/28 5:40pm 261 4 G 8 68° 35% - - 39° 71.5° 45.7° - - -
3/28 5:30pm 242 4 G 11 69° 34% - - 39° 71.5° 45.7° - - -
3/28 5:20pm 260 3 G 8 69° 34% - - 39° 71.5° 45.7° - - -
3/28 5:10pm 242 5 G 9 69° 33% - - 39° 71.5° 45.7° - - -
3/28 5:00pm 261 3 G 7 70° 33% - - 39° 71.5° 45.7° - - -
3/28 4:50pm 281 4 G 11 70° 33% - - 40° 71.5° 45.7° - - -
3/28 4:40pm 249 4 G 12 70° 33% - - 40° 71.5° 45.7° - - -
3/28 4:30pm 260 4 G 9 70° 32% - - 39° 71.5° 45.7° - - -
3/28 4:20pm 242 4 G 8 70° 32% - - 39° 71.5° 45.7° - - -
3/28 4:10pm 249 4 G 8 71° 33% - - 40° 71.5° 45.7° - - -
3/28 4:00pm 260 4 G 8 71° 34% - - 41° 71.5° 45.7° - - -
3/28 3:50pm 252 4 G 9 71° 34% - - 41° 71.5° 45.7° - - -
3/28 3:40pm 242 3 G 8 71° 34% - - 41° 71.5° 45.7° - - -
3/28 3:30pm 232 4 G 9 70° 34% - - 41° 70.9° 45.7° - - -
3/28 3:20pm 273 3 G 7 70° 34% - - 41° 70.9° 45.7° - - -
3/28 3:10pm 220 3 G 10 70° 34% - - 40° 70.9° 45.7° - - -
3/28 3:00pm 258 3 G 7 70° 34% - - 40° 70.9° 45.7° - - -
3/28 2:50pm 247 3 G 9 70° 33% - - 40° 70.9° 45.7° - - -
3/28 2:40pm 215 4 G 11 70° 28% - - 35° 70.7° 45.7° - - -
3/28 2:30pm 230 4 G 9 70° 32% - - 39° 70.5° 45.7° - - -
3/28 2:20pm 154 3 G 7 70° 30% - - 37° 70.5° 45.7° - - -
3/28 2:10pm 188 5 G 13 70° 31% - - 37° 70.5° 45.7° - - -
3/28 2:00pm 238 4 G 11 69° 32% - - 38° 70.5° 45.7° - - -
3/28 1:50pm 223 7 G 14 69° 32% - - 38° 70.5° 45.7° - - -
3/28 1:40pm 206 4 G 10 69° 29% - - 36° 70.5° 45.7° - - -
3/28 1:30pm 202 4 G 9 69° 27% - - 34° 70.5° 45.7° - - -
3/28 1:20pm 164 3 G 9 69° 23% - - 30° 70.5° 45.7° - - -
3/28 1:10pm 180 4 G 8 68° 24% - - 30° 69.5° 45.7° - - -
3/28 1:00pm 191 5 G 9 69° 25% - - 31° 69.5° 45.7° - - -
3/28 12:50pm 223 3 G 10 69° 25% - - 32° 69.4° 45.7° - - -
3/28 12:40pm 173 3 G 8 68° 26% - - 32° 68.6° 45.7° - - -
3/28 12:30pm 203 4 G 11 67° 26% - - 32° 68.1° 45.7° - - -
3/28 12:20pm 214 6 G 11 67° 29% - - 33° 68.1° 45.7° - - -
3/28 12:10pm 195 5 G 10 66° 33% - - 36° 68.1° 45.7° - - -
3/28 12:00pm 191 4 G 8 66° 37% - - 39° 68.1° 45.7° - - -
3/28 11:50am 174 5 G 9 65° 41% - - 41° 68.1° 45.7° - - -
3/28 11:40am 185 4 G 9 66° 43% - - 43° 68.1° 45.7° - - -
3/28 11:30am 157 3 G 8 65° 45% - - 43° 68.1° 45.7° - - -
3/28 11:20am 184 4 G 8 64° 49% - - 44° 68.1° 45.7° - - -
3/28 11:10am 179 4 G 8 64° 50% - - 45° 68.1° 45.7° - - -
3/28 11:00am 187 4 G 8 64° 50% - - 45° 68.1° 45.7° - - -
3/28 10:50am 188 4 G 7 64° 51% - - 45° 68.1° 45.7° - - -
3/28 10:40am 207 4 G 11 65° 33% - - 35° 68.1° 45.7° - - -
3/28 10:30am 267 1 G 7 66° 24% - - 28° 68.1° 45.7° - - -
3/28 10:20am 279 3 G 5 65° 27% - - 30° 66.5° 45.7° - - -
3/28 10:10am 229 1 G 3 66° 30% - - 33° 66.5° 45.7° - - -
3/28 10:00am 269 2 G 4 64° 31% - - 32° 64.2° 45.7° - - -
3/28 9:50am 159 2 G 6 63° 33% - - 34° 64.1° 45.7° - - -
3/28 9:40am 88 3 G 6 62° 38% - - 36° 62.9° 45.7° - - -
3/28 9:30am 191 1 G 2 60° 49% - - 41° 61.7° 45.7° - - -
3/28 9:20am 54 1 G 4 58° 56% - - 42° 59.8° 45.7° - - -
3/28 9:10am 180 3 G 6 57° 59% - - 43° 58.1° 45.7° - - -
3/28 9:00am 65 2 G 6 56° 54% - - 40° 57.7° 45.7° - - -
3/28 8:50am 41 4 G 7 55° 60% - - 41° 55.5° 45.7° - - -
3/28 8:40am 53 3 G 6 54° 63% - - 42° 55.1° 45.7° - - -
3/28 8:30am 57 3 G 5 54° 65% - - 42° 54.1° 45.7° - - -
3/28 8:20am 71 4 G 6 53° 67% - - 42° 53.3° 45.7° - - -
3/28 8:10am 51 3 G 7 52° 71% - - 43° 52.5° 45.7° - - -
3/28 8:00am 52 2 G 4 50° 76% - - 43° 51° 45.7° - - -
3/28 7:50am 8 1 G 2 49° 74% - - 41° 50.7° 45.7° - - -
3/28 7:40am 50 2 G 4 50° 71% - - 41° 50.7° 45.7° - - -
3/28 7:30am 43 2 G 5 50° 71% - - 40° 50.7° 45.7° - - -
3/28 7:20am 36 4 G 7 49° 69% - - 40° 50.7° 45.7° - - -
3/28 7:10am 23 7 G 9 48° 72% - - 40° 50.7° 45.7° - - -
3/28 7:00am 34 5 G 7 49° 74% - - 41° 50.7° 45.7° - - -
3/28 6:50am 46 3 G 5 47° 81% - - 41° 50.7° 45.7° - - -
3/28 6:40am 326 2 G 5 49° 74% - - 41° 50.7° 45.7° - - -
3/28 6:30am 40 4 G 6 50° 75% - - 42° 50.7° 45.7° - - -
3/28 6:20am 45 4 G 6 48° 81% - - 43° 50.7° 45.7° - - -
3/28 6:10am 46 2 G 3 47° 83% - - 42° 50.7° 45.7° - - -
3/28 6:00am 65 3 G 5 46° 82% - - 41° 50.7° 45.7° - - -